createdAt,value
2018-02-03T00:00:28.336Z,94.37
2018-02-03T00:02:54.378Z,94.78
2018-02-03T00:05:20.420Z,93.96
2018-02-03T00:07:46.421Z,93.54
2018-02-03T00:10:12.457Z,93.10
2018-02-03T00:12:38.513Z,93.71
2018-02-03T00:15:04.591Z,93.50
2018-02-03T00:17:30.644Z,93.28
2018-02-03T00:19:56.724Z,93.12
2018-02-03T00:22:22.700Z,93.32
2018-02-03T00:24:48.700Z,93.67
2018-02-03T00:27:14.716Z,93.61
2018-02-03T00:29:40.745Z,94.43
2018-02-03T00:32:06.720Z,94.63
2018-02-03T00:34:32.756Z,94.92
2018-02-03T00:36:58.981Z,95.40
2018-02-03T00:39:25.008Z,95.35
2018-02-03T00:41:51.044Z,95.30
2018-02-03T00:44:17.108Z,95.14
2018-02-03T00:46:43.147Z,94.71
2018-02-03T00:49:09.219Z,93.82
2018-02-03T00:51:35.212Z,93.09
2018-02-03T00:54:01.237Z,92.68
2018-02-03T00:56:27.325Z,92.85
2018-02-03T00:58:53.321Z,92.81
2018-02-03T01:01:19.409Z,92.65
2018-02-03T01:03:45.379Z,92.74
2018-02-03T01:06:11.391Z,92.75
2018-02-03T01:08:37.392Z,92.75
2018-02-03T01:11:03.341Z,92.94
2018-02-03T01:13:29.361Z,92.91
2018-02-03T01:15:55.380Z,93.07
2018-02-03T01:18:21.396Z,93.05
2018-02-03T01:20:47.456Z,93.00
2018-02-03T01:23:13.445Z,92.98
2018-02-03T01:25:39.456Z,93.34
2018-02-03T01:28:05.473Z,92.91
2018-02-03T01:30:31.487Z,92.61
2018-02-03T01:32:57.473Z,92.68
2018-02-03T01:35:23.557Z,92.92
2018-02-03T01:37:49.545Z,92.83
2018-02-03T01:40:15.847Z,92.88
2018-02-03T01:42:41.968Z,92.50
2018-02-03T01:45:07.980Z,92.47
2018-02-03T01:47:46.200Z,92.57
2018-02-03T01:50:12.192Z,92.54
2018-02-03T01:52:38.225Z,92.38
2018-02-03T01:55:04.249Z,92.05
2018-02-03T01:57:30.216Z,92.29
2018-02-03T01:59:56.256Z,92.41
2018-02-03T02:02:22.272Z,92.51
2018-02-03T02:04:48.237Z,92.54
2018-02-03T02:07:14.243Z,92.45
2018-02-03T02:09:40.300Z,92.49
2018-02-03T02:12:06.339Z,92.66
2018-02-03T02:14:32.396Z,92.67
2018-02-03T02:16:58.511Z,92.85
2018-02-03T02:19:24.564Z,92.42
2018-02-03T02:21:50.575Z,92.44
2018-02-03T02:24:16.536Z,92.47
2018-02-03T02:26:42.582Z,92.33
2018-02-03T02:29:08.640Z,92.21
2018-02-03T02:31:34.608Z,92.11
2018-02-03T02:34:00.608Z,92.00
2018-02-03T02:36:26.724Z,92.10
2018-02-03T02:38:53.032Z,92.14
2018-02-03T02:41:18.993Z,93.03
2018-02-03T02:43:45.028Z,92.88
2018-02-03T02:46:11.025Z,92.25
2018-02-03T02:48:37.036Z,92.32
2018-02-03T02:51:03.129Z,92.44
2018-02-03T02:53:29.116Z,92.46
2018-02-03T02:55:55.148Z,92.42
2018-02-03T02:58:21.176Z,92.46
2018-02-03T03:00:47.257Z,92.30
2018-02-03T03:03:13.255Z,92.17
2018-02-03T03:05:39.249Z,92.38
2018-02-03T03:08:05.309Z,92.44
2018-02-03T03:10:31.368Z,92.52
2018-02-03T03:12:57.411Z,92.36
2018-02-03T03:15:23.427Z,92.25
2018-02-03T03:17:49.391Z,92.22
2018-02-03T03:20:15.446Z,91.99
2018-02-03T03:22:41.460Z,92.07
2018-02-03T03:25:07.468Z,91.99
2018-02-03T03:27:33.472Z,92.11
2018-02-03T03:29:59.496Z,92.09
2018-02-03T03:32:25.598Z,91.86
2018-02-03T03:34:51.625Z,92.57
2018-02-03T03:37:17.696Z,92.43
2018-02-03T03:39:43.740Z,92.57
2018-02-03T03:42:09.757Z,92.25
2018-02-03T03:44:35.740Z,92.07
2018-02-03T03:47:01.833Z,91.94
2018-02-03T03:49:27.817Z,92.31
2018-02-03T03:51:53.863Z,92.14
2018-02-03T03:54:19.879Z,92.49
2018-02-03T03:56:45.897Z,92.51
2018-02-03T03:59:11.904Z,92.65
2018-02-03T04:01:37.941Z,92.46
2018-02-03T04:04:03.969Z,91.90
2018-02-03T04:06:30.048Z,92.01
2018-02-03T04:08:56.063Z,92.05
2018-02-03T04:11:22.037Z,92.54
2018-02-03T04:13:48.097Z,92.65
2018-02-03T04:16:14.193Z,91.88
2018-02-03T04:18:40.243Z,91.74
2018-02-03T04:21:06.309Z,91.73
2018-02-03T04:23:32.312Z,91.36
2018-02-03T04:25:58.304Z,91.09
2018-02-03T04:28:24.352Z,90.70
2018-02-03T04:30:50.379Z,90.92
2018-02-03T04:33:16.424Z,91.29
2018-02-03T04:35:42.491Z,90.91
2018-02-03T04:38:08.486Z,90.79
2018-02-03T04:40:34.542Z,90.72
2018-02-03T04:43:00.624Z,90.57
2018-02-03T04:45:26.634Z,90.93
2018-02-03T04:47:52.637Z,91.03
2018-02-03T04:50:18.716Z,90.48
2018-02-03T04:52:44.721Z,90.60
2018-02-03T04:55:10.661Z,90.85
2018-02-03T04:57:36.680Z,91.15
2018-02-03T05:00:02.961Z,91.37
2018-02-03T05:02:28.968Z,91.58
2018-02-03T05:04:54.936Z,91.62
2018-02-03T05:07:20.973Z,91.81
2018-02-03T05:09:46.959Z,91.72
2018-02-03T05:12:12.974Z,91.77
2018-02-03T05:14:38.973Z,91.59
2018-02-03T05:17:04.964Z,91.49
2018-02-03T05:19:30.977Z,91.62
2018-02-03T05:21:56.996Z,91.63
2018-02-03T05:24:23.024Z,91.79
2018-02-03T05:26:49.104Z,92.13
2018-02-03T05:29:15.151Z,92.27
2018-02-03T05:31:41.160Z,92.20
2018-02-03T05:34:07.231Z,92.01
2018-02-03T05:36:33.308Z,91.90
2018-02-03T05:38:59.407Z,91.73
2018-02-03T05:41:25.391Z,91.74
2018-02-03T05:43:51.811Z,91.79
2018-02-03T05:46:17.820Z,91.53
2018-02-03T05:48:43.852Z,91.01
2018-02-03T05:51:09.877Z,91.03
2018-02-03T05:53:35.883Z,90.83
2018-02-03T05:56:01.944Z,90.87
2018-02-03T05:58:28.128Z,90.92
2018-02-03T06:00:54.184Z,90.86
2018-02-03T06:03:20.219Z,90.87
2018-02-03T06:05:46.240Z,90.93
2018-02-03T06:08:12.228Z,91.15
2018-02-03T06:10:38.241Z,91.68
2018-02-03T06:13:04.235Z,92.03
2018-02-03T06:15:30.245Z,91.81
2018-02-03T06:17:56.227Z,90.89
2018-02-03T06:20:22.232Z,91.26
2018-02-03T06:22:48.310Z,91.47
2018-02-03T06:25:14.272Z,92.64
2018-02-03T06:27:40.285Z,93.21
2018-02-03T06:30:06.273Z,93.21
2018-02-03T06:32:32.297Z,93.20
2018-02-03T06:34:58.319Z,93.32
2018-02-03T06:37:24.312Z,93.57
2018-02-03T06:39:50.376Z,93.67
2018-02-03T06:42:16.385Z,93.96
2018-02-03T06:44:42.432Z,94.12
2018-02-03T06:47:08.927Z,93.86
2018-02-03T06:49:34.947Z,92.95
2018-02-03T06:52:00.955Z,91.90
2018-02-03T06:54:27.352Z,91.06
2018-02-03T06:56:53.348Z,90.81
2018-02-03T06:59:19.357Z,91.55
2018-02-03T07:01:45.390Z,92.43
2018-02-03T07:04:11.423Z,92.05
2018-02-03T07:06:37.361Z,91.09
2018-02-03T07:09:03.380Z,91.05
2018-02-03T07:11:29.406Z,90.77
2018-02-03T07:13:55.417Z,92.09
2018-02-03T07:16:21.413Z,92.79
2018-02-03T07:18:47.488Z,93.00
2018-02-03T07:21:13.496Z,93.02
2018-02-03T07:23:39.508Z,93.10
2018-02-03T07:26:05.537Z,93.49
2018-02-03T07:28:31.548Z,93.52
2018-02-03T07:30:57.660Z,92.79
2018-02-03T07:33:23.657Z,91.93
2018-02-03T07:35:49.671Z,92.13
2018-02-03T07:38:15.677Z,91.41
2018-02-03T07:40:41.719Z,91.23
2018-02-03T07:43:07.680Z,90.78
2018-02-03T07:45:33.678Z,90.25
2018-02-03T07:47:59.707Z,90.49
2018-02-03T07:50:25.768Z,90.50
2018-02-03T07:52:51.861Z,90.73
2018-02-03T07:55:17.904Z,90.66
2018-02-03T07:57:43.905Z,90.86
2018-02-03T08:00:09.982Z,91.19
2018-02-03T08:02:35.973Z,91.40
2018-02-03T08:05:02.063Z,91.67
2018-02-03T08:07:28.085Z,91.76
2018-02-03T08:09:54.133Z,91.75
2018-02-03T08:12:20.097Z,91.95
2018-02-03T08:14:46.041Z,92.19
2018-02-03T08:17:12.012Z,92.42
2018-02-03T08:19:38.002Z,92.51
2018-02-03T08:22:04.060Z,92.73
2018-02-03T08:24:30.093Z,92.95
2018-02-03T08:26:56.111Z,93.09
2018-02-03T08:29:22.148Z,93.05
2018-02-03T08:31:48.275Z,92.94
2018-02-03T08:34:14.373Z,92.88
2018-02-03T08:36:40.377Z,93.14
2018-02-03T08:39:06.459Z,93.50
2018-02-03T08:41:32.482Z,93.48
2018-02-03T08:43:58.474Z,93.46
2018-02-03T08:46:24.527Z,93.52
2018-02-03T08:48:50.597Z,93.40
2018-02-03T08:51:16.644Z,93.29
2018-02-03T08:53:42.648Z,93.38
2018-02-03T08:56:08.736Z,93.42
2018-02-03T08:58:34.775Z,93.33
2018-02-03T09:01:00.785Z,93.32
2018-02-03T09:03:26.883Z,93.08
2018-02-03T09:05:52.952Z,92.97
2018-02-03T09:08:19.033Z,92.59
2018-02-03T09:10:45.030Z,93.65
2018-02-03T09:13:11.048Z,93.42
2018-02-03T09:15:37.028Z,93.53
2018-02-03T09:18:03.019Z,93.47
2018-02-03T09:20:29.064Z,92.88
2018-02-03T09:22:55.184Z,92.30
2018-02-03T09:25:21.202Z,91.69
2018-02-03T09:27:47.140Z,90.99
2018-02-03T09:30:13.220Z,91.13
2018-02-03T09:32:39.207Z,90.94
2018-02-03T09:35:05.288Z,90.44
2018-02-03T09:37:31.629Z,90.57
2018-02-03T09:39:57.656Z,90.22
2018-02-03T09:42:23.877Z,91.03
2018-02-03T09:44:50.110Z,91.51
2018-02-03T09:47:16.159Z,91.22
2018-02-03T09:49:42.148Z,89.64
2018-02-03T09:52:08.208Z,89.64
2018-02-03T09:54:34.404Z,88.94
2018-02-03T09:57:00.448Z,87.92
2018-02-03T09:59:26.457Z,88.08
2018-02-03T10:01:52.495Z,88.12
2018-02-03T10:04:18.510Z,88.24
2018-02-03T10:06:44.963Z,87.54
2018-02-03T10:09:10.945Z,87.31
2018-02-03T10:11:36.995Z,87.42
2018-02-03T10:14:03.024Z,87.07
2018-02-03T10:16:29.140Z,87.98
2018-02-03T10:18:55.179Z,87.41
2018-02-03T10:21:21.153Z,86.87
2018-02-03T10:23:47.153Z,86.13
2018-02-03T10:26:13.196Z,86.63
2018-02-03T10:28:39.199Z,86.81
2018-02-03T10:31:05.205Z,87.59
2018-02-03T10:33:31.238Z,86.06
2018-02-03T10:35:57.243Z,85.44
2018-02-03T10:38:23.619Z,85.97
2018-02-03T10:40:49.636Z,86.71
2018-02-03T10:43:15.609Z,85.98
2018-02-03T10:45:41.597Z,85.86
2018-02-03T10:48:07.639Z,87.00
2018-02-03T10:50:33.709Z,85.85
2018-02-03T10:52:59.802Z,85.57
2018-02-03T10:55:25.856Z,86.03
2018-02-03T10:57:52.217Z,85.53
2018-02-03T11:00:18.245Z,85.36
2018-02-03T11:02:44.393Z,85.87
2018-02-03T11:05:10.440Z,82.13
2018-02-03T11:07:36.457Z,80.53
2018-02-03T11:10:02.795Z,80.69
2018-02-03T11:12:28.817Z,78.24
2018-02-03T11:14:54.885Z,77.57
2018-02-03T11:17:21.923Z,76.15
2018-02-03T11:19:48.021Z,76.71
2018-02-03T11:22:14.054Z,78.58
2018-02-03T11:24:43.828Z,77.49
2018-02-03T11:27:11.294Z,76.70
2018-02-03T11:29:37.387Z,77.42
2018-02-03T11:32:03.462Z,76.45
2018-02-03T11:34:29.507Z,75.93
2018-02-03T11:36:55.634Z,76.71
2018-02-03T11:39:22.678Z,78.56
2018-02-03T11:41:49.002Z,77.52
2018-02-03T11:44:15.026Z,77.13
2018-02-03T11:46:41.036Z,77.74
2018-02-03T11:49:07.163Z,75.86
2018-02-03T11:51:33.204Z,76.08
2018-02-03T11:53:59.250Z,76.46
2018-02-03T11:56:25.317Z,76.50
2018-02-03T11:58:51.368Z,76.52
2018-02-03T12:01:17.555Z,76.64
2018-02-03T12:03:43.564Z,77.09
2018-02-03T12:06:09.629Z,78.40
2018-02-03T12:08:35.693Z,77.76
2018-02-03T12:11:01.735Z,77.47
2018-02-03T12:13:27.741Z,76.52
2018-02-03T12:15:53.789Z,76.88
2018-02-03T12:18:19.824Z,76.26
2018-02-03T12:20:45.927Z,76.39
2018-02-03T12:23:11.932Z,77.20
2018-02-03T12:25:37.987Z,77.59
2018-02-03T12:28:04.264Z,78.38
2018-02-03T12:30:31.186Z,78.95
2018-02-03T12:32:57.207Z,78.15
2018-02-03T12:35:23.238Z,77.84
2018-02-03T12:37:49.265Z,78.85
2018-02-03T12:40:15.313Z,79.41
2018-02-03T12:42:41.304Z,79.42
2018-02-03T12:45:07.382Z,79.60
2018-02-03T12:47:33.412Z,80.10
2018-02-03T12:49:59.431Z,80.51
2018-02-03T12:52:25.501Z,80.63
2018-02-03T12:54:51.577Z,81.24
2018-02-03T12:57:17.587Z,81.09
2018-02-03T12:59:43.580Z,80.16
2018-02-03T13:02:09.615Z,79.59
2018-02-03T13:04:35.695Z,80.20
2018-02-03T13:07:01.684Z,79.76
2018-02-03T13:09:27.724Z,79.97
2018-02-03T13:11:53.726Z,80.57
2018-02-03T13:14:19.761Z,80.39
2018-02-03T13:16:45.831Z,80.32
2018-02-03T13:19:11.858Z,80.54
2018-02-03T13:21:37.929Z,82.69
2018-02-03T13:24:03.932Z,83.86
2018-02-03T13:26:29.929Z,85.25
2018-02-03T13:28:55.911Z,85.78
2018-02-03T13:31:22.025Z,86.96
2018-02-03T13:33:48.768Z,88.13
2018-02-03T13:36:14.917Z,87.90
2018-02-03T13:38:40.918Z,88.20
2018-02-03T13:41:06.921Z,88.49
2018-02-03T13:43:32.949Z,88.71
2018-02-03T13:45:58.929Z,88.51
2018-02-03T13:48:24.976Z,87.01
2018-02-03T13:50:51.019Z,85.28
2018-02-03T13:53:17.031Z,85.51
2018-02-03T13:55:43.002Z,85.60
2018-02-03T13:58:09.035Z,85.13
2018-02-03T14:00:35.092Z,84.44
2018-02-03T14:03:01.096Z,83.87
2018-02-03T14:05:27.174Z,83.39
2018-02-03T14:07:53.277Z,83.26
2018-02-03T14:10:19.327Z,81.34
2018-02-03T14:12:45.916Z,81.84
2018-02-03T14:15:11.950Z,82.03
2018-02-03T14:17:38.064Z,82.66
2018-02-03T14:20:04.112Z,82.97
2018-02-03T14:22:30.125Z,82.06
2018-02-03T14:25:02.546Z,82.05
2018-02-03T14:27:28.593Z,81.67
2018-02-03T14:29:54.680Z,82.84
2018-02-03T14:32:20.740Z,83.34
2018-02-03T14:34:46.809Z,84.08
2018-02-03T14:37:12.828Z,83.43
2018-02-03T14:39:38.857Z,84.33
2018-02-03T14:42:04.901Z,84.59
2018-02-03T14:44:30.913Z,84.44
2018-02-03T14:46:56.907Z,85.36
2018-02-03T14:49:23.296Z,84.38
2018-02-03T14:51:49.446Z,84.63
2018-02-03T14:54:15.524Z,84.22
2018-02-03T14:56:41.456Z,83.54
2018-02-03T14:59:07.457Z,83.75
2018-02-03T15:01:33.404Z,82.24
2018-02-03T15:03:59.383Z,82.52
2018-02-03T15:06:25.423Z,82.39
2018-02-03T15:08:51.408Z,82.26
2018-02-03T15:11:17.447Z,82.65
2018-02-03T15:13:43.569Z,82.98
2018-02-03T15:16:09.607Z,83.01
2018-02-03T15:18:35.700Z,83.56
2018-02-03T15:21:01.717Z,83.90
2018-02-03T15:23:27.732Z,83.66
2018-02-03T15:25:53.765Z,84.59
2018-02-03T15:28:19.788Z,83.11
2018-02-03T15:30:45.799Z,81.98
2018-02-03T15:33:11.872Z,83.08
2018-02-03T15:35:38.189Z,83.64
2018-02-03T15:38:04.246Z,82.66
2018-02-03T15:40:30.230Z,83.96
2018-02-03T15:42:56.209Z,84.25
2018-02-03T15:45:22.227Z,85.06
2018-02-03T15:47:48.220Z,85.34
2018-02-03T15:50:14.284Z,85.19
2018-02-03T15:52:40.260Z,84.39
2018-02-03T15:55:06.309Z,85.33
2018-02-03T15:57:32.377Z,85.20
2018-02-03T15:59:58.320Z,84.04
2018-02-03T16:02:24.302Z,83.65
2018-02-03T16:04:50.397Z,83.81
2018-02-03T16:07:16.429Z,84.96
2018-02-03T16:09:42.516Z,84.45
2018-02-03T16:12:08.541Z,84.67
2018-02-03T16:14:34.552Z,85.57
2018-02-03T16:17:00.586Z,84.30
2018-02-03T16:19:26.612Z,84.76
2018-02-03T16:21:52.656Z,85.77
2018-02-03T16:24:18.698Z,86.60
2018-02-03T16:26:44.704Z,87.71
2018-02-03T16:29:10.791Z,88.64
2018-02-03T16:31:36.823Z,88.94
2018-02-03T16:34:02.832Z,89.73
2018-02-03T16:36:28.899Z,89.50
2018-02-03T16:38:54.863Z,89.13
2018-02-03T16:41:20.816Z,89.71
2018-02-03T16:43:46.875Z,89.44
2018-02-03T16:46:12.916Z,88.70
2018-02-03T16:48:38.933Z,88.50
2018-02-03T16:51:04.944Z,88.00
2018-02-03T16:53:30.917Z,87.44
2018-02-03T16:55:56.963Z,87.40
2018-02-03T16:58:23.052Z,87.18
2018-02-03T17:00:49.017Z,86.68
2018-02-03T17:03:15.044Z,85.28
2018-02-03T17:05:41.203Z,86.11
2018-02-03T17:08:07.216Z,85.30
2018-02-03T17:10:33.289Z,86.52
2018-02-03T17:12:59.320Z,86.91
2018-02-03T17:15:25.284Z,86.77
2018-02-03T17:17:51.352Z,86.48
2018-02-03T17:20:17.348Z,86.70
2018-02-03T17:22:43.582Z,86.35
2018-02-03T17:25:09.677Z,85.95
2018-02-03T17:27:35.764Z,85.94
2018-02-03T17:30:01.825Z,85.74
2018-02-03T17:32:27.812Z,84.54
2018-02-03T17:34:53.892Z,84.45
2018-02-03T17:37:25.878Z,85.55
2018-02-03T17:39:51.975Z,85.99
2018-02-03T17:42:17.950Z,83.87
2018-02-03T17:44:44.005Z,84.13
2018-02-03T17:47:10.055Z,83.39
2018-02-03T17:49:36.157Z,82.63
2018-02-03T17:52:02.261Z,83.21
2018-02-03T17:54:28.258Z,83.32
2018-02-03T17:57:00.244Z,84.50
2018-02-03T17:59:26.256Z,81.96
2018-02-03T18:01:52.331Z,83.46
2018-02-03T18:04:18.383Z,84.09
2018-02-03T18:06:50.620Z,81.70
2018-02-03T18:09:16.739Z,82.86
2018-02-03T18:11:42.780Z,82.44
2018-02-03T18:14:08.780Z,82.59
2018-02-03T18:16:35.068Z,82.13
2018-02-03T18:19:01.271Z,82.55
2018-02-03T18:21:27.551Z,83.71
2018-02-03T18:23:53.677Z,84.54
2018-02-03T18:26:20.116Z,85.67
2018-02-03T18:28:46.263Z,85.59
2018-02-03T18:31:12.909Z,85.68
2018-02-03T18:33:39.078Z,85.53
2018-02-03T18:36:05.310Z,85.84
2018-02-03T18:38:31.716Z,85.69
2018-02-03T18:40:57.909Z,86.10
2018-02-03T18:43:24.037Z,84.83
2018-02-03T18:45:50.135Z,83.71
2018-02-03T18:48:16.640Z,84.74
2018-02-03T18:50:42.915Z,83.85
2018-02-03T18:53:11.095Z,82.82
2018-02-03T18:55:37.752Z,83.25
2018-02-03T18:58:03.996Z,83.84
2018-02-03T19:00:30.920Z,85.34
2018-02-03T19:02:57.312Z,86.26
2018-02-03T19:05:23.709Z,86.98
2018-02-03T19:07:50.170Z,88.16
2018-02-03T19:10:17.396Z,88.23
2018-02-03T19:12:43.851Z,88.19
2018-02-03T19:15:11.464Z,88.02
2018-02-03T19:17:39.854Z,85.74
2018-02-03T19:29:52.811Z,84.46
2018-02-03T19:32:21.261Z,84.41
2018-02-03T19:47:26.036Z,86.58
2018-02-03T19:49:52.113Z,86.35
2018-02-03T19:52:18.174Z,86.55
2018-02-03T19:54:44.226Z,87.00
2018-02-03T19:57:10.221Z,87.03
2018-02-03T19:59:36.270Z,88.51
2018-02-03T20:02:02.315Z,90.10
2018-02-03T20:04:28.417Z,88.97
2018-02-03T20:06:54.425Z,88.12
2018-02-03T20:09:21.348Z,87.93
2018-02-03T20:11:47.373Z,88.38
2018-02-03T20:14:13.429Z,89.16
2018-02-03T20:16:39.730Z,89.79
2018-02-03T20:19:05.846Z,90.07
2018-02-03T20:21:31.835Z,89.91
2018-02-03T20:23:57.865Z,89.30
2018-02-03T20:26:23.989Z,89.50
2018-02-03T20:28:50.325Z,90.02
2018-02-03T20:31:16.442Z,90.44
2018-02-03T20:33:42.484Z,90.31
2018-02-03T20:36:08.601Z,89.92
2018-02-03T20:38:35.179Z,90.24
2018-02-03T20:41:01.275Z,90.36
2018-02-03T20:43:27.354Z,90.35
2018-02-03T20:45:53.375Z,90.34
2018-02-03T20:48:19.462Z,91.22
2018-02-03T20:50:45.546Z,90.79
2018-02-03T20:53:11.659Z,91.27
2018-02-03T20:55:37.781Z,92.22
2018-02-03T20:58:03.842Z,92.10
2018-02-03T21:00:29.991Z,91.66
2018-02-03T21:02:56.047Z,91.46
2018-02-03T21:05:22.169Z,91.25
2018-02-03T21:07:48.263Z,91.22
2018-02-03T21:10:14.295Z,90.87
2018-02-03T21:12:40.402Z,91.10
2018-02-03T21:15:06.449Z,91.06
2018-02-03T21:17:32.473Z,90.73
2018-02-03T21:19:58.533Z,90.91
2018-02-03T21:22:24.576Z,90.66
2018-02-03T21:24:50.608Z,90.61
2018-02-03T21:27:16.758Z,90.96
2018-02-03T21:29:42.761Z,90.67
2018-02-03T21:32:08.788Z,90.60
2018-02-03T21:34:34.804Z,90.70
2018-02-03T21:37:00.919Z,90.52
2018-02-03T21:39:26.942Z,91.19
2018-02-03T21:41:52.955Z,91.06
2018-02-03T21:44:18.954Z,90.73
2018-02-03T21:46:44.999Z,90.25
2018-02-03T21:49:11.004Z,89.87
2018-02-03T21:51:37.088Z,89.69
2018-02-03T21:54:03.176Z,89.86
2018-02-03T21:56:29.244Z,89.98
2018-02-03T21:58:55.252Z,90.82
2018-02-03T22:01:21.345Z,90.69
2018-02-03T22:03:54.218Z,90.79
2018-02-03T22:06:20.182Z,90.70
2018-02-03T22:08:46.102Z,90.55
2018-02-03T22:11:12.535Z,90.54
2018-02-03T22:13:39.224Z,90.23
2018-02-03T22:16:05.502Z,90.81
2018-02-03T22:18:31.596Z,91.50
2018-02-03T22:20:57.596Z,92.36
2018-02-03T22:23:23.624Z,91.95
2018-02-03T22:25:49.652Z,91.56
2018-02-03T22:28:15.665Z,91.31
2018-02-03T22:30:41.718Z,91.18
2018-02-03T22:33:07.969Z,91.12
2018-02-03T22:35:34.364Z,90.96
2018-02-03T22:38:00.392Z,89.99
2018-02-03T22:40:26.441Z,89.14
2018-02-03T22:42:52.477Z,89.24
2018-02-03T22:45:18.495Z,89.63
2018-02-03T22:47:44.610Z,89.87
2018-02-03T22:50:10.684Z,90.13
2018-02-03T22:52:36.677Z,89.40
2018-02-03T22:55:02.885Z,89.56
2018-02-03T22:57:28.952Z,90.21
2018-02-03T22:59:55.045Z,90.40
2018-02-03T23:02:26.941Z,90.36
2018-02-03T23:04:52.964Z,90.57
2018-02-03T23:07:18.961Z,90.53
2018-02-03T23:09:45.013Z,90.78
2018-02-03T23:12:11.043Z,91.80
2018-02-03T23:14:37.073Z,92.59
2018-02-03T23:17:03.116Z,92.89
2018-02-03T23:19:29.186Z,93.02
2018-02-03T23:21:55.197Z,92.39
2018-02-03T23:24:21.204Z,92.27
2018-02-03T23:26:47.221Z,91.80
2018-02-03T23:29:13.237Z,91.25
2018-02-03T23:31:51.606Z,91.05
2018-02-03T23:34:17.624Z,91.11
2018-02-03T23:36:43.696Z,91.24
2018-02-03T23:39:09.752Z,91.01
2018-02-03T23:41:35.823Z,91.78
2018-02-03T23:44:01.894Z,92.28
2018-02-03T23:46:27.944Z,91.70
2018-02-03T23:48:53.945Z,91.62
2018-02-03T23:51:19.944Z,91.74
2018-02-03T23:53:46.044Z,91.68
2018-02-03T23:56:12.100Z,91.34
2018-02-03T23:58:38.150Z,90.50
